Time;durP1;ratioP1;P1;durP2;ratioP2;P2;SDS_P1;SDS_P2;PMS_P1;PMS_P2;Temp;Humidity;BMP_temperature;BMP_pressure;BME280_temperature;BME280_humidity;BME280_pressure;Samples;Min_cycle;Max_cycle;Signal;HPM_P1;HPM_P2
2023/10/24 00:00:35;;;;;;;6.03;4.80;;;12.70;94.50;;;14.26;64.40;96705.44;5010799;28;20053;-50
2023/10/24 00:03:03;;;;;;;5.15;4.63;;;12.70;94.50;;;14.16;64.58;96713.88;5012300;28;20045;-49
2023/10/24 00:05:30;;;;;;;6.97;4.97;;;12.70;95.30;;;14.25;64.50;96710.97;5012347;28;20524;-47
2023/10/24 00:07:58;;;;;;;6.50;5.13;;;12.70;95.20;;;14.27;64.38;96712.44;5011996;28;20441;-49
2023/10/24 00:10:25;;;;;;;6.93;4.70;;;12.70;94.60;;;14.32;64.33;96701.91;5011699;28;20073;-47
2023/10/24 00:12:53;;;;;;;5.50;4.80;;;12.80;94.20;;;14.34;64.26;96699.84;5011907;28;20046;-49
2023/10/24 00:15:21;;;;;;;8.65;4.90;;;12.80;94.10;;;14.35;64.06;96701.50;5012142;28;20046;-47
2023/10/24 00:17:49;;;;;;;7.70;6.03;;;12.70;94.50;;;14.32;64.21;96690.38;5011981;28;20044;-47
2023/10/24 00:20:16;;;;;;;9.48;5.20;;;12.60;95.00;;;14.29;64.27;96682.78;5011483;28;20049;-49
2023/10/24 00:22:44;;;;;;;6.22;4.57;;;12.50;95.80;;;14.31;64.23;96691.44;5011293;28;20061;-49
2023/10/24 00:25:12;;;;;;;7.22;4.88;;;12.60;95.70;;;14.30;64.27;96698.63;5011774;28;20046;-52
2023/10/24 00:27:39;;;;;;;6.05;4.93;;;12.60;95.30;;;14.28;64.25;96689.16;5011899;28;20045;-48
2023/10/24 00:30:07;;;;;;;9.70;5.47;;;12.50;95.90;;;14.25;64.17;96700.28;5009746;28;20045;-48
2023/10/24 00:32:35;;;;;;;7.10;5.47;;;12.50;96.40;;;14.22;64.31;96706.88;5009874;28;20042;-50
2023/10/24 00:35:04;;;;;;;6.80;5.13;;;12.50;96.60;;;14.23;64.26;96715.72;5008034;28;20045;-48
2023/10/24 00:37:32;;;;;;;8.50;5.72;;;12.50;96.30;;;14.21;64.42;96725.81;5011641;28;20041;-50
2023/10/24 00:40:02;;;;;;;7.55;5.88;;;12.50;96.10;;;14.16;64.29;96724.59;5010160;28;20065;-48
2023/10/24 00:42:30;;;;;;;6.90;5.28;;;12.60;95.20;;;14.14;64.46;96723.97;5011034;28;20046;-46
2023/10/24 00:44:58;;;;;;;6.85;5.35;;;12.60;94.60;;;14.15;64.42;96727.47;5010569;28;20045;-50
2023/10/24 00:47:26;;;;;;;6.60;5.50;;;12.60;94.50;;;14.16;64.54;96731.81;5011627;28;20402;-48
2023/10/24 00:49:53;;;;;;;6.40;5.30;;;12.70;94.00;;;14.15;64.37;96730.97;5001706;28;20050;-48
2023/10/24 00:52:21;;;;;;;8.48;5.00;;;12.70;93.60;;;14.20;64.23;96732.22;5010584;28;20045;-50
2023/10/24 00:54:49;;;;;;;7.35;5.22;;;12.70;93.70;;;14.22;64.27;96732.84;5010451;28;20057;-47
2023/10/24 00:57:18;;;;;;;6.22;5.10;;;12.80;93.20;;;14.24;64.31;96723.56;5011598;28;20049;-49
2023/10/24 00:59:46;;;;;;;6.72;5.32;;;12.80;92.40;;;14.25;64.17;96721.69;4993427;28;20049;-52
2023/10/24 01:02:14;;;;;;;7.70;5.28;;;12.80;92.40;;;14.27;64.00;96711.59;5001652;28;20098;-47
2023/10/24 01:04:44;;;;;;;8.00;4.88;;;12.70;92.30;;;14.27;63.81;96709.75;5010315;28;20038;-50
2023/10/24 01:07:11;;;;;;;7.32;5.88;;;12.70;92.30;;;14.28;63.74;96719.44;5011158;28;20062;-48
2023/10/24 01:09:39;;;;;;;7.30;5.65;;;12.60;92.80;;;14.29;63.64;96710.38;5011114;28;20305;-49
2023/10/24 01:12:07;;;;;;;6.28;5.35;;;12.60;93.00;;;14.27;63.74;96708.91;5010027;28;20061;-47
2023/10/24 01:14:34;;;;;;;9.27;5.65;;;12.50;93.20;;;14.29;63.58;96699.66;5018154;28;20057;-45
2023/10/24 01:17:13;;;;;;;7.95;5.07;;;12.50;93.70;;;14.30;63.64;96697.81;5009580;28;20069;-49
2023/10/24 01:19:40;;;;;;;7.22;5.18;;;12.60;93.50;;;14.33;63.64;96692.06;5009319;28;20053;-48
2023/10/24 01:22:08;;;;;;;8.40;6.20;;;12.60;92.90;;;14.31;63.57;96686.09;5010352;28;20457;-48
2023/10/24 01:24:36;;;;;;;8.80;5.63;;;12.60;92.70;;;14.32;63.47;96685.03;5010052;28;20049;-47
2023/10/24 01:27:03;;;;;;;8.18;6.25;;;12.60;92.60;;;14.31;63.47;96675.38;5010902;28;20371;-51
2023/10/24 01:29:31;;;;;;;6.85;4.85;;;12.70;92.20;;;14.27;63.42;96677.63;5009598;28;20441;-47
2023/10/24 01:31:58;;;;;;;7.45;5.07;;;12.60;92.30;;;14.25;63.46;96678.84;5010345;28;20049;-45
2023/10/24 01:34:26;;;;;;;6.45;4.93;;;12.60;92.00;;;14.26;63.54;96672.50;5003762;28;20413;-48
2023/10/24 01:36:53;;;;;;;7.57;4.95;;;12.60;92.10;;;14.27;63.38;96682.16;5013696;28;20455;-46
2023/10/24 01:39:22;;;;;;;6.65;4.85;;;12.60;92.00;;;14.23;63.40;96687.13;5013759;28;20056;-46
2023/10/24 01:41:49;;;;;;;7.78;4.78;;;12.60;91.70;;;14.24;63.22;96677.22;5014966;28;20044;-49
2023/10/24 01:44:17;;;;;;;8.32;5.15;;;12.60;92.00;;;14.25;63.40;96676.19;5014762;28;20042;-47
2023/10/24 01:46:44;;;;;;;5.57;5.07;;;12.70;91.80;;;14.27;63.45;96676.78;5013952;28;20057;-51
2023/10/24 01:49:12;;;;;;;7.38;5.22;;;12.70;91.70;;;14.28;63.29;96675.78;5021077;28;20046;-47
2023/10/24 01:51:40;;;;;;;6.20;5.03;;;12.70;91.70;;;14.29;63.36;96666.72;5014774;28;20107;-50
2023/10/24 01:54:07;;;;;;;6.10;5.22;;;12.70;91.80;;;14.29;63.34;96666.72;5013415;28;20549;-47
2023/10/24 01:56:35;;;;;;;6.43;5.10;;;12.70;91.50;;;14.23;63.28;96668.38;5014691;28;20414;-51
2023/10/24 01:59:04;;;;;;;9.02;6.20;;;12.70;91.90;;;14.24;63.30;96664.66;5014507;28;20409;-48
2023/10/24 02:01:32;;;;;;;6.03;5.22;;;12.70;91.70;;;14.26;63.40;96667.13;5006009;28;20049;-49
2023/10/24 02:04:00;;;;;;;6.50;4.40;;;12.70;91.70;;;14.29;63.20;96675.56;5019356;28;20038;-47
2023/10/24 02:06:27;;;;;;;6.18;5.22;;;12.70;91.50;;;14.32;63.16;96677.00;5014993;28;20048;-49
2023/10/24 02:08:55;;;;;;;9.02;5.07;;;12.70;91.70;;;14.33;63.22;96670.63;5013208;28;20053;-48
2023/10/24 02:11:23;;;;;;;6.47;4.97;;;12.70;91.90;;;14.32;63.25;96685.03;5014416;28;20053;-47
2023/10/24 02:13:50;;;;;;;6.25;5.03;;;12.60;91.70;;;14.28;63.22;96689.97;5013186;28;20044;-47
2023/10/24 02:16:18;;;;;;;7.45;5.25;;;12.60;92.70;;;14.26;63.39;96696.59;5013122;28;20057;-48
2023/10/24 02:18:46;;;;;;;8.82;4.85;;;12.50;93.10;;;14.28;63.20;96683.81;5004464;28;20049;-49
2023/10/24 02:21:14;;;;;;;8.73;4.88;;;12.50;93.00;;;14.28;63.15;96689.16;5012717;28;20417;-49
2023/10/24 02:23:42;;;;;;;10.00;5.13;;;12.60;92.60;;;14.28;63.22;96663.22;5014241;28;20041;-50
2023/10/24 02:26:15;;;;;;;7.72;4.85;;;12.60;92.20;;;14.30;63.18;96669.19;5013969;28;20042;-49
2023/10/24 02:28:43;;;;;;;;;;;12.70;91.80;;;14.30;63.28;96654.97;5013319;28;20049;-52
2023/10/24 02:31:11;;;;;;;6.22;4.25;;;12.70;90.70;;;14.37;62.85;96655.78;5012521;28;19929;-47
2023/10/24 02:33:38;;;;;;;7.63;4.63;;;12.80;90.90;;;14.34;62.94;96653.53;5012243;28;20064;-50
2023/10/24 02:36:11;;;;;;;5.93;4.00;;;12.80;90.40;;;14.34;63.04;96661.56;5012608;28;20108;-49
2023/10/24 02:38:39;;;;;;;5.75;4.43;;;12.90;90.40;;;14.33;63.09;96655.38;5013117;28;20041;-46
2023/10/24 02:41:06;;;;;;;6.30;4.57;;;12.90;90.00;;;14.33;63.13;96659.94;5013400;28;20038;-45
2023/10/24 02:43:34;;;;;;;4.22;3.83;;;12.90;90.00;;;14.37;63.00;96650.44;5013187;28;20053;-49
2023/10/24 02:46:06;;;;;;;4.68;4.20;;;12.90;90.40;;;14.39;63.00;96648.38;5011773;28;20045;-48
2023/10/24 02:48:34;;;;;;;4.50;3.15;;;12.90;90.00;;;14.43;63.05;96649.59;5012784;28;20042;-46
2023/10/24 02:51:02;;;;;;;3.45;2.80;;;13.00;89.80;;;14.42;62.86;96641.78;5013139;28;20042;-47
2023/10/24 02:53:30;;;;;;;7.47;4.47;;;13.00;89.20;;;14.46;63.01;96646.50;5020639;28;20057;-46
2023/10/24 02:56:02;;;;;;;5.97;3.30;;;13.10;89.00;;;14.53;62.92;96646.47;5012241;28;20053;-45
2023/10/24 02:58:31;;;;;;;5.68;2.95;;;13.20;88.70;;;14.60;62.96;96655.34;5013278;28;20090;-45
2023/10/24 03:01:05;;;;;;;4.65;2.92;;;13.20;88.40;;;14.65;62.83;96665.44;5012046;28;20052;-45
2023/10/24 03:03:33;;;;;;;4.32;2.72;;;13.20;88.30;;;14.68;62.75;96673.88;5012201;28;20057;-50
2023/10/24 03:06:01;;;;;;;3.60;2.40;;;13.30;88.50;;;14.72;62.78;96677.78;5012637;28;20057;-49
2023/10/24 03:08:29;;;;;;;3.13;2.25;;;13.30;88.40;;;14.75;62.51;96674.69;5012043;28;20058;-47
2023/10/24 03:10:57;;;;;;;4.25;2.40;;;13.30;88.70;;;14.78;62.58;96668.06;5012809;28;20057;-48
2023/10/24 03:13:25;;;;;;;3.33;2.22;;;13.30;88.70;;;14.85;62.33;96674.22;5013046;28;20046;-49
2023/10/24 03:15:53;;;;;;;4.00;1.98;;;13.40;88.30;;;14.91;62.24;96684.09;5012120;28;20046;-48
2023/10/24 03:18:22;;;;;;;5.78;2.97;;;13.50;88.10;;;14.98;62.29;96704.69;5012900;28;20045;-50
2023/10/24 03:20:50;;;;;;;2.72;2.22;;;13.60;87.70;;;15.03;62.22;96703.00;5012673;28;20053;-49
2023/10/24 03:23:18;;;;;;;5.90;2.35;;;13.60;87.30;;;15.02;61.95;96696.00;5013096;28;20050;-51
2023/10/24 03:25:46;;;;;;;4.88;2.90;;;13.60;87.20;;;15.03;62.02;96686.94;5013310;28;20064;-48
2023/10/24 03:28:14;;;;;;;4.22;2.67;;;13.50;87.60;;;15.03;61.99;96696.84;5012822;28;20521;-47
2023/10/24 03:30:43;;;;;;;5.88;2.67;;;13.50;87.60;;;14.96;62.01;96681.59;5012776;28;20057;-49
2023/10/24 03:33:10;;;;;;;4.20;3.30;;;13.50;87.90;;;14.99;61.91;96690.25;5011239;28;20493;-49
2023/10/24 03:35:38;;;;;;;6.22;3.30;;;13.50;88.20;;;14.99;61.95;96688.41;5001341;28;20056;-47
2023/10/24 03:38:06;;;;;;;5.38;3.20;;;13.40;88.50;;;14.96;62.00;96681.59;5011965;28;20517;-49
2023/10/24 03:40:33;;;;;;;5.60;4.55;;;13.30;88.90;;;14.91;61.93;96684.09;5012441;28;20033;-47
2023/10/24 03:43:01;;;;;;;5.38;3.67;;;13.20;89.20;;;14.85;62.11;96684.09;5012834;28;20049;-46
2023/10/24 03:45:29;;;;;;;5.65;3.67;;;13.10;90.10;;;14.82;62.05;96687.22;5012682;28;20061;-47
2023/10/24 03:47:56;;;;;;;7.65;3.83;;;13.00;90.70;;;14.76;62.09;96676.31;5012481;28;20037;-48
2023/10/24 03:50:24;;;;;;;6.57;5.65;;;13.00;91.30;;;14.71;62.11;96677.97;5012052;28;20053;-49
2023/10/24 03:52:52;;;;;;;5.28;4.40;;;12.90;92.00;;;14.66;62.38;96669.78;5011436;28;20418;-47
2023/10/24 03:55:19;;;;;;;8.52;4.53;;;12.80;92.00;;;14.61;62.40;96672.25;5011188;28;20046;-47
2023/10/24 03:57:47;;;;;;;5.75;4.30;;;12.70;92.90;;;14.60;62.66;96657.19;5012374;28;20042;-50
2023/10/24 04:00:15;;;;;;;4.53;3.90;;;12.70;93.10;;;14.57;62.66;96650.41;5012283;28;20053;-50
2023/10/24 04:02:42;;;;;;;7.85;5.95;;;12.70;93.50;;;14.57;62.66;96640.50;5012165;28;20282;-47
2023/10/24 04:05:10;;;;;;;8.40;4.63;;;12.70;93.30;;;14.57;62.56;96634.34;5012009;28;20527;-51
2023/10/24 04:07:38;;;;;;;5.07;4.57;;;12.70;93.40;;;14.54;62.84;96621.34;5012155;28;20540;-49
2023/10/24 04:10:07;;;;;;;5.45;4.50;;;12.70;93.60;;;14.51;62.97;96625.25;5011857;28;20042;-48
2023/10/24 04:12:35;;;;;;;6.28;4.43;;;12.70;93.90;;;14.51;62.90;96617.22;5011739;28;20046;-49
2023/10/24 04:15:03;;;;;;;6.45;3.88;;;12.70;93.50;;;14.51;63.10;96601.16;5010994;28;20052;-47
2023/10/24 04:17:32;;;;;;;4.65;4.10;;;12.70;93.50;;;14.53;62.89;96609.81;5011831;28;20042;-48
2023/10/24 04:20:00;;;;;;;8.38;4.25;;;12.80;92.90;;;14.56;63.06;96619.28;5011728;28;20037;-51
2023/10/24 04:22:28;;;;;;;5.43;4.93;;;12.80;92.90;;;14.56;62.79;96616.59;5011953;28;20050;-52
2023/10/24 04:24:56;;;;;;;5.85;4.63;;;12.80;93.00;;;14.56;62.96;96621.97;5010854;28;20061;-51
2023/10/24 04:27:24;;;;;;;5.60;4.55;;;12.80;92.40;;;14.54;62.87;96616.00;5011616;28;20042;-47
2023/10/24 04:29:52;;;;;;;7.10;5.55;;;12.80;93.00;;;14.49;62.93;96615.81;5011661;28;20045;-49
2023/10/24 04:32:20;;;;;;;8.57;5.85;;;12.70;93.70;;;14.46;62.98;96629.59;5011743;28;20042;-48
2023/10/24 04:34:51;;;;;;;7.53;5.85;;;12.60;94.20;;;14.44;63.03;96626.31;5011928;28;20049;-50
2023/10/24 04:37:19;;;;;;;9.48;6.63;;;12.60;94.60;;;14.42;63.25;96628.38;5011400;28;20560;-47
2023/10/24 04:39:46;;;;;;;10.50;7.97;;;12.50;95.00;;;14.40;63.33;96636.63;5009876;28;20046;-49
2023/10/24 04:42:14;;;;;;;13.27;7.20;;;12.50;95.30;;;14.36;63.31;96636.25;5011064;28;20502;-48
2023/10/24 04:44:42;;;;;;;9.32;7.75;;;12.50;95.70;;;14.37;63.40;96639.72;5011589;28;20045;-51
2023/10/24 04:47:09;;;;;;;8.80;7.43;;;12.60;95.60;;;14.38;63.43;96649.38;5011230;28;20053;-52
2023/10/24 04:49:38;;;;;;;8.55;6.50;;;12.60;95.30;;;14.39;63.47;96637.66;5011140;28;20060;-48
2023/10/24 04:52:05;;;;;;;9.30;6.28;;;12.50;95.20;;;14.40;63.45;96633.13;5011594;28;20046;-51
2023/10/24 04:54:34;;;;;;;12.45;7.43;;;12.60;95.40;;;14.39;63.55;96626.94;5011464;28;20050;-50
2023/10/24 04:57:01;;;;;;;10.52;8.55;;;12.60;95.50;;;14.40;63.60;96617.88;5011386;28;20057;-49
2023/10/24 04:59:29;;;;;;;10.07;8.25;;;12.60;95.30;;;14.40;63.58;96615.19;5010879;28;20517;-49
2023/10/24 05:01:57;;;;;;;12.18;9.77;;;12.60;95.10;;;14.40;63.63;96612.53;5010160;28;20034;-50
2023/10/24 05:04:24;;;;;;;8.68;7.68;;;12.60;95.10;;;14.40;63.58;96606.34;5010621;28;20050;-48
2023/10/24 05:06:52;;;;;;;10.80;8.75;;;12.60;95.10;;;14.38;63.76;96590.47;5011194;28;20045;-52
2023/10/24 05:09:20;;;;;;;8.63;7.30;;;12.60;95.90;;;14.40;63.82;96595.63;5010447;28;20050;-50
2023/10/24 05:11:48;;;;;;;7.70;6.75;;;12.60;95.90;;;14.40;63.87;96585.75;5003786;28;20052;-49
2023/10/24 05:14:16;;;;;;;9.38;7.00;;;12.60;96.00;;;14.40;64.01;96591.09;4993917;28;20061;-52
2023/10/24 05:16:44;;;;;;;9.95;6.40;;;12.70;95.90;;;14.43;63.93;96592.56;5011140;28;20041;-50
2023/10/24 05:19:11;;;;;;;7.82;6.53;;;12.70;95.50;;;14.43;63.92;96582.66;5017398;28;20045;-51
2023/10/24 05:21:39;;;;;;;7.63;6.25;;;12.70;95.50;;;14.43;63.88;96579.16;5011168;28;20410;-47
2023/10/24 05:24:07;;;;;;;10.57;6.90;;;12.70;95.50;;;14.41;63.96;96590.06;5011274;28;20046;-51
2023/10/24 05:26:35;;;;;;;7.40;6.25;;;12.70;95.80;;;14.42;63.84;96586.34;5011002;28;20054;-49
2023/10/24 05:29:02;;;;;;;8.15;6.10;;;12.70;95.50;;;14.41;64.01;96578.56;5010878;28;20042;-48
2023/10/24 05:31:30;;;;;;;8.35;5.18;;;12.60;95.70;;;14.39;63.93;96586.78;5010986;28;20049;-49
2023/10/24 05:33:57;;;;;;;7.22;5.43;;;12.60;95.60;;;14.37;63.91;96576.28;5010978;28;20060;-52
2023/10/24 05:36:25;;;;;;;7.35;5.93;;;12.60;95.60;;;14.34;63.84;96574.00;5011030;28;20049;-49
2023/10/24 05:38:53;;;;;;;5.53;4.88;;;12.50;96.10;;;14.32;63.93;96572.59;5009857;28;20061;-49
2023/10/24 05:41:21;;;;;;;7.25;5.57;;;12.50;96.10;;;14.31;64.02;96568.28;5009929;28;20201;-49
2023/10/24 05:43:49;;;;;;;8.15;6.25;;;12.50;96.00;;;14.27;63.97;96578.59;5010974;28;20528;-51
2023/10/24 05:46:16;;;;;;;8.00;5.05;;;12.60;95.50;;;14.28;64.23;96580.22;5010748;28;20417;-51
2023/10/24 05:48:44;;;;;;;6.85;5.60;;;12.70;95.20;;;14.29;64.27;96579.19;5010879;28;20516;-47
2023/10/24 05:51:26;;;;;;;7.00;4.88;;;12.60;95.30;;;14.29;64.25;96571.16;5010676;28;20041;-50
2023/10/24 05:53:53;;;;;;;8.55;5.90;;;12.60;95.00;;;14.29;64.09;96571.16;5011081;28;20068;-51
2023/10/24 05:56:22;;;;;;;6.75;5.95;;;12.60;95.60;;;14.30;64.05;96570.13;5010763;28;20057;-49
2023/10/24 05:58:49;;;;;;;6.13;5.13;;;12.50;95.60;;;14.30;64.14;96564.75;5010712;28;20501;-50
2023/10/24 06:01:17;;;;;;;7.95;5.88;;;12.60;95.60;;;14.32;64.17;96552.00;5010706;28;20042;-48
2023/10/24 06:03:45;;;;;;;7.97;5.70;;;12.60;95.60;;;14.34;64.17;96565.97;5010777;28;20057;-51
2023/10/24 06:06:13;;;;;;;7.93;5.32;;;12.60;95.50;;;14.34;64.08;96570.53;5010652;28;20049;-53
2023/10/24 06:08:41;;;;;;;9.40;5.10;;;12.60;95.30;;;14.35;64.24;96572.19;5010765;28;20053;-52
2023/10/24 06:11:08;;;;;;;6.53;5.70;;;12.60;95.40;;;14.34;64.18;96563.31;5010673;28;20410;-49
2023/10/24 06:13:36;;;;;;;7.20;4.80;;;12.70;95.10;;;14.35;64.21;96567.66;5010447;28;20528;-52
2023/10/24 06:16:12;;;;;;;7.97;5.30;;;12.70;94.80;;;14.37;64.01;96580.81;5010501;28;20046;-50
2023/10/24 06:18:40;;;;;;;6.97;4.68;;;12.70;94.80;;;14.37;64.13;96583.50;5010632;28;20045;-47
2023/10/24 06:21:08;;;;;;;6.53;5.00;;;12.60;95.20;;;14.40;64.07;96585.75;5010767;28;20521;-50
2023/10/24 06:23:37;;;;;;;5.72;4.88;;;12.60;95.40;;;14.41;64.18;96581.22;5014277;28;20053;-52
2023/10/24 06:26:15;;;;;;;6.65;5.20;;;12.70;95.50;;;14.41;64.11;96587.41;5021344;28;20042;-53
2023/10/24 06:28:43;;;;;;;7.25;5.28;;;12.70;95.70;;;14.42;64.11;96610.44;5014159;28;20046;-51
2023/10/24 06:31:11;;;;;;;7.13;5.13;;;12.70;96.00;;;14.42;64.29;96599.75;5013871;28;20120;-50
2023/10/24 06:33:40;;;;;;;9.88;6.15;;;12.70;96.30;;;14.44;64.36;96608.38;5013739;28;20466;-49
2023/10/24 06:36:08;;;;;;;5.80;4.63;;;12.70;96.60;;;14.46;64.35;96619.72;5010305;28;20046;-52
2023/10/24 06:38:36;;;;;;;8.00;5.10;;;12.70;96.80;;;14.48;64.33;96603.44;5013865;28;20046;-48
2023/10/24 06:41:08;;;;;;;9.18;5.20;;;12.70;96.20;;;14.50;64.29;96604.03;5013629;28;20112;-51
2023/10/24 06:43:36;;;;;;;5.00;4.35;;;12.70;96.20;;;14.48;64.32;96601.59;5013602;28;20049;-53
2023/10/24 06:46:04;;;;;;;7.00;5.38;;;12.80;96.10;;;14.50;64.42;96607.56;5013938;28;20038;-47
2023/10/24 06:48:32;;;;;;;7.05;5.47;;;12.80;96.30;;;14.50;64.38;96607.56;5013758;28;20046;-48
2023/10/24 06:51:00;;;;;;;11.18;6.82;;;12.80;96.30;;;14.50;64.41;96609.41;5012432;28;20049;-53
2023/10/24 06:53:28;;;;;;;7.50;5.68;;;12.70;96.80;;;14.48;64.48;96609.63;5013991;28;20042;-49
2023/10/24 06:56:03;;;;;;;8.73;6.20;;;12.70;97.00;;;14.39;64.83;96616.25;5013542;28;20042;-52
2023/10/24 06:58:30;;;;;;;8.70;5.88;;;12.60;97.70;;;14.35;64.83;96612.34;5013600;28;20109;-48
2023/10/24 07:00:58;;;;;;;7.75;5.93;;;12.50;99.90;;;14.32;64.88;96615.44;5005983;28;20041;-48
2023/10/24 07:03:26;;;;;;;9.77;6.05;;;12.50;99.60;;;14.20;65.32;96617.13;5013631;28;20053;-48
2023/10/24 07:05:54;;;;;;;7.72;6.45;;;12.40;98.90;;;14.04;65.49;96618.38;5013705;28;20034;-50
2023/10/24 07:08:22;;;;;;;7.93;6.50;;;12.30;99.90;;;13.94;65.71;96624.16;5020522;28;20049;-49
2023/10/24 07:10:50;;;;;;;9.05;6.82;;;12.20;99.90;;;13.92;65.96;96608.31;5020038;28;20056;-49
2023/10/24 07:13:18;;;;;;;9.88;7.00;;;12.10;99.90;;;13.91;66.00;96598.63;5013178;28;20057;-45
2023/10/24 07:15:46;;;;;;;8.25;7.05;;;12.10;99.90;;;13.90;66.13;96602.34;5013088;28;20056;-52
2023/10/24 07:18:15;;;;;;;8.30;6.43;;;12.10;99.90;;;13.92;66.15;96610.13;5012978;28;20421;-50
2023/10/24 07:20:43;;;;;;;9.90;6.88;;;12.10;99.90;;;13.93;66.08;96615.28;5012702;28;20494;-49
2023/10/24 07:23:10;;;;;;;8.07;7.05;;;12.10;99.90;;;13.97;65.65;96608.50;5012871;28;20042;-50
2023/10/24 07:25:38;;;;;;;7.72;6.55;;;12.10;99.90;;;13.97;65.99;96605.81;5012740;28;20049;-49
2023/10/24 07:28:06;;;;;;;8.25;6.35;;;12.20;99.90;;;13.99;66.10;96603.75;5003690;28;20057;-47
2023/10/24 07:30:33;;;;;;;8.65;6.93;;;12.20;99.90;;;14.02;66.07;96609.75;5012694;28;20050;-47
2023/10/24 07:33:01;;;;;;;9.70;7.10;;;12.20;99.90;;;14.03;66.16;96611.38;5004612;28;20513;-50
2023/10/24 07:35:28;;;;;;;10.93;9.38;;;12.20;99.90;;;14.04;66.21;96618.38;5012889;28;20046;-47
2023/10/24 07:37:56;;;;;;;10.45;8.35;;;12.20;99.90;;;14.04;66.32;96618.38;5012966;28;20416;-50
2023/10/24 07:40:24;;;;;;;9.25;7.63;;;12.20;99.90;;;14.04;66.32;96621.06;5012326;28;20057;-53
2023/10/24 07:42:52;;;;;;;10.43;7.47;;;12.20;99.90;;;14.07;66.40;96615.28;5013032;28;20053;-52
2023/10/24 07:45:19;;;;;;;9.90;7.43;;;12.30;99.90;;;14.11;66.35;96611.16;5012919;28;20390;-52
2023/10/24 07:47:47;;;;;;;10.65;7.45;;;12.30;99.90;;;14.15;66.32;96607.88;5012436;28;20052;-49
2023/10/24 07:50:15;;;;;;;11.38;7.25;;;12.40;99.90;;;14.18;66.55;96606.63;4997061;28;20053;-50
2023/10/24 07:52:42;;;;;;;10.15;7.57;;;12.40;99.90;;;14.21;66.66;96600.00;4995982;28;20444;-51
2023/10/24 07:55:10;;;;;;;9.18;7.53;;;12.50;99.90;;;14.23;66.73;96603.28;5002621;28;20045;-51
2023/10/24 07:57:38;;;;;;;9.05;7.15;;;12.50;99.90;;;14.25;66.55;96601.22;5009101;28;20056;-51
2023/10/24 08:00:09;;;;;;;10.52;7.93;;;12.50;99.90;;;14.26;66.72;96598.34;5005647;28;20053;-49
2023/10/24 08:02:38;;;;;;;9.38;7.60;;;12.50;99.90;;;14.28;66.99;96604.31;5004455;28;20053;-54
2023/10/24 08:05:07;;;;;;;10.65;8.30;;;12.50;99.90;;;14.31;66.86;96611.94;5006308;28;20045;-51
2023/10/24 08:07:36;;;;;;;11.27;8.38;;;12.50;99.90;;;14.33;67.03;96612.56;5007657;28;20089;-49
2023/10/24 08:10:05;;;;;;;12.30;8.60;;;12.60;99.90;;;14.36;67.06;96620.19;5005844;28;20061;-50
2023/10/24 08:12:33;;;;;;;12.00;8.88;;;12.60;99.90;;;14.38;67.19;96628.81;5007780;28;21347;-47
2023/10/24 08:15:01;;;;;;;10.00;8.05;;;12.60;99.90;;;14.42;67.30;96628.38;5007391;28;20046;-53
2023/10/24 08:17:29;;;;;;;9.57;7.55;;;12.70;99.90;;;14.46;67.23;96630.44;5006376;28;20048;-48
2023/10/24 08:19:57;;;;;;;9.45;7.25;;;12.70;99.90;;;14.48;67.38;96628.38;5002779;28;20042;-48
2023/10/24 08:22:24;;;;;;;10.00;8.13;;;12.80;99.90;;;14.52;67.46;96628.75;5006118;28;20045;-49
2023/10/24 08:24:52;;;;;;;8.63;7.72;;;12.90;99.90;;;14.55;67.37;96631.03;5007447;28;20394;-50
2023/10/24 08:27:20;;;;;;;7.72;5.97;;;12.80;99.90;;;14.56;67.38;96625.50;5008407;28;20213;-49
2023/10/24 08:29:47;;;;;;;8.57;6.05;;;12.80;99.90;;;14.56;67.42;96625.50;5005983;28;20064;-47
2023/10/24 08:32:15;;;;;;;7.93;6.50;;;12.80;99.90;;;14.58;67.54;96636.00;5005199;28;20053;-49
2023/10/24 08:34:43;;;;;;;9.60;7.00;;;12.80;99.90;;;14.57;67.61;96624.44;5005527;28;20050;-49
2023/10/24 08:37:12;;;;;;;9.27;7.68;;;12.80;99.90;;;14.58;67.48;96622.59;5005458;28;20493;-49
2023/10/24 08:39:39;;;;;;;10.18;9.07;;;12.80;99.90;;;14.60;67.54;96625.91;5006415;28;20042;-50
2023/10/24 08:42:11;;;;;;;9.48;7.25;;;12.90;99.90;;;14.61;67.53;96622.16;5006689;28;20490;-49
2023/10/24 08:44:40;;;;;;;13.88;8.40;;;12.90;99.90;;;14.60;67.53;96615.19;5006925;28;20049;-51
2023/10/24 08:47:14;;;;;;;9.70;8.25;;;12.90;99.90;;;14.48;67.95;96603.44;5004172;28;20042;-50
2023/10/24 08:49:42;;;;;;;11.32;7.47;;;12.70;99.90;;;14.45;67.60;96603.88;5005056;28;20033;-52
2023/10/24 08:52:10;;;;;;;10.23;7.95;;;12.70;99.90;;;14.44;67.81;96596.84;5002902;28;20046;-48
2023/10/24 08:55:04;;;;;;;10.18;7.90;;;12.70;99.90;;;14.42;67.80;96589.03;5005869;28;20049;-49
2023/10/24 08:57:40;;;;;;;13.05;8.20;;;12.60;99.90;;;14.40;67.94;96599.13;5012206;28;20446;-52
2023/10/24 09:00:10;;;;;;;11.10;9.15;;;12.50;99.90;;;14.38;67.94;96582.44;5015150;28;20045;-53
2023/10/24 09:02:41;;;;;;;15.23;8.70;;;12.60;99.90;;;14.38;68.16;96596.69;5011586;28;20050;-51
2023/10/24 09:05:11;;;;;;;9.73;8.32;;;12.60;99.90;;;14.42;68.14;96610.44;5011548;28;20049;-49
2023/10/24 09:07:39;;;;;;;13.00;8.48;;;12.60;99.90;;;14.43;68.19;96616.66;5011514;28;20046;-52
2023/10/24 09:10:08;;;;;;;11.82;8.93;;;12.60;99.90;;;14.46;68.37;96624.25;5018428;28;20421;-50
2023/10/24 09:12:39;;;;;;;8.90;7.88;;;12.70;99.90;;;14.48;68.38;96619.50;5011421;28;20046;-48
2023/10/24 09:15:11;;;;;;;10.75;8.25;;;12.70;99.90;;;14.53;68.47;96627.72;5019571;28;20038;-48
2023/10/24 09:17:57;;;;;;;9.25;7.25;;;12.80;99.90;;;14.57;68.53;96619.09;4990459;28;20123;-49
2023/10/24 09:20:30;;;;;;;11.35;8.20;;;12.90;99.90;;;14.62;68.55;96618.47;5011061;28;20050;-51
2023/10/24 09:23:06;;;;;;;9.40;7.07;;;13.00;99.90;;;14.66;68.57;96619.69;5011164;28;20038;-51
2023/10/24 09:25:34;;;;;;;9.77;7.18;;;13.00;99.90;;;14.71;68.59;96619.03;5011675;28;20046;-52
2023/10/24 09:28:18;;;;;;;8.82;6.75;;;13.10;99.90;;;14.74;68.50;96615.94;5011196;28;20044;-50
2023/10/24 09:30:46;;;;;;;9.90;6.15;;;13.10;99.90;;;14.76;68.48;96617.38;5025706;28;20046;-49
2023/10/24 09:33:14;;;;;;;8.52;5.97;;;13.10;99.90;;;14.80;68.51;96620.44;5011250;28;20046;-46
2023/10/24 09:35:42;;;;;;;6.55;5.68;;;13.10;99.90;;;14.82;68.68;96621.06;5008844;28;20429;-51
2023/10/24 09:38:18;;;;;;;;;;;13.20;99.90;;;14.84;68.46;96623.53;5010684;28;20046;-51
2023/10/24 09:40:46;;;;;;;9.43;6.05;;;13.20;99.90;;;14.88;68.57;96622.88;5009716;28;19922;-49
2023/10/24 09:43:23;;;;;;;9.52;6.50;;;13.10;99.90;;;14.85;68.59;96626.00;5011048;28;20046;-48
2023/10/24 09:45:51;;;;;;;10.20;6.47;;;13.20;99.90;;;14.87;68.63;96626.59;5010988;28;20057;-51
2023/10/24 09:48:22;;;;;;;12.27;7.60;;;13.20;99.90;;;14.88;68.63;96622.88;5010108;28;20417;-51
2023/10/24 09:50:51;;;;;;;8.15;6.22;;;13.20;99.90;;;14.90;68.55;96625.34;5010367;28;20053;-50
2023/10/24 09:53:19;;;;;;;9.85;6.40;;;13.20;99.90;;;14.93;68.72;96628.44;5010237;28;20050;-51
2023/10/24 09:55:49;;;;;;;10.65;7.60;;;13.20;99.90;;;14.96;68.61;96632.53;5021403;28;20057;-51
2023/10/24 09:58:20;;;;;;;10.65;6.65;;;13.30;99.90;;;15.00;68.70;96641.78;5014710;28;20050;-52
2023/10/24 10:00:48;;;;;;;11.40;6.78;;;13.30;99.90;;;15.02;68.45;96634.34;5014446;28;20045;-51
2023/10/24 10:03:16;;;;;;;9.90;7.00;;;13.30;99.90;;;14.99;68.77;96639.34;5023102;28;20053;-51
2023/10/24 10:05:47;;;;;;;8.38;6.65;;;13.30;99.90;;;14.98;68.82;96630.47;5015111;28;20049;-48
2023/10/24 10:08:16;;;;;;;7.60;6.82;;;13.30;99.90;;;14.98;68.61;96630.47;5014124;28;20069;-51
2023/10/24 10:10:46;;;;;;;9.30;7.35;;;13.30;99.90;;;15.00;68.75;96630.25;5014341;28;20486;-49
2023/10/24 10:13:21;;;;;;;10.20;6.88;;;13.30;99.90;;;14.98;68.76;96621.59;5014740;28;20065;-47
2023/10/24 10:16:06;;;;;;;10.55;7.00;;;13.20;99.90;;;14.96;68.68;96619.94;5026461;28;20046;-51
2023/10/24 10:19:13;;;;;;;8.43;6.25;;;13.30;99.90;;;14.97;68.57;96626.16;5024168;28;20050;-48
2023/10/24 10:22:12;;;;;;;7.60;5.63;;;13.30;99.90;;;14.99;68.56;96612.53;5010663;28;20049;-52
2023/10/24 10:25:02;;;;;;;8.45;5.93;;;13.40;99.90;;;14.98;68.52;96597.47;5009696;28;20161;-53